createdAt,value
2023-05-24T00:00:01.630Z,81.3
2023-05-24T00:01:03.756Z,80.9
2023-05-24T00:02:01.548Z,80.4
2023-05-24T00:03:03.763Z,80.1
2023-05-24T00:04:01.871Z,80.7
2023-05-24T00:05:02.064Z,80.9
2023-05-24T00:06:01.402Z,80.2
2023-05-24T00:07:01.881Z,80.9
2023-05-24T00:08:01.363Z,81
2023-05-24T00:09:03.428Z,81.3
2023-05-24T00:10:01.297Z,82.4
2023-05-24T00:11:01.720Z,81.5
2023-05-24T00:12:02.230Z,81.1
2023-05-24T00:13:01.617Z,80.8
2023-05-24T00:14:03.753Z,81.5
2023-05-24T00:15:01.578Z,81.7
2023-05-24T00:16:02.029Z,82
2023-05-24T00:17:01.576Z,81.8
2023-05-24T00:18:03.665Z,81.3
2023-05-24T00:19:01.411Z,81.1
2023-05-24T00:20:01.952Z,80.2
2023-05-24T00:21:02.995Z,80.4
2023-05-24T00:22:03.437Z,80.9
2023-05-24T00:23:02.239Z,80.4
2023-05-24T00:24:01.705Z,80.4
2023-05-24T00:25:03.821Z,80.3
2023-05-24T00:26:03.264Z,81.4
2023-05-24T00:27:02.091Z,80.7
2023-05-24T00:28:01.504Z,80.9
2023-05-24T00:29:01.990Z,80.8
2023-05-24T00:30:03.079Z,81.2
2023-05-24T00:31:03.586Z,81.9
2023-05-24T00:32:03.003Z,80.8
2023-05-24T00:33:01.845Z,79.8
2023-05-24T00:34:02.920Z,80.4
2023-05-24T00:35:03.331Z,80.9
2023-05-24T00:36:02.204Z,81.6
2023-05-24T00:37:01.701Z,80.5
2023-05-24T00:38:02.138Z,80.3
2023-05-24T00:39:03.243Z,80.1
2023-05-24T00:40:03.739Z,79.7
2023-05-24T00:41:01.585Z,80.3
2023-05-24T00:42:02.040Z,80
2023-05-24T00:43:01.528Z,80.2
2023-05-24T00:44:03.564Z,80.1
2023-05-24T00:45:01.435Z,79.7
2023-05-24T00:46:01.908Z,79.7
2023-05-24T00:47:01.378Z,80
2023-05-24T00:48:01.893Z,79.8
2023-05-24T00:49:02.984Z,80.2
2023-05-24T00:50:01.785Z,80.7
2023-05-24T00:52:01.700Z,79.6
2023-05-24T00:53:03.818Z,81.7
2023-05-24T00:54:01.616Z,81.9
2023-05-24T00:55:02.132Z,81.7
2023-05-24T00:56:01.560Z,80.8
2023-05-24T00:57:02.086Z,80.9
2023-05-24T00:58:01.452Z,81
2023-05-24T00:59:03.594Z,80.8
2023-05-24T01:00:01.376Z,80.2
2023-05-24T01:01:03.609Z,80.6
2023-05-24T01:02:01.404Z,80.3
2023-05-24T01:03:01.871Z,80.3
2023-05-24T01:04:02.239Z,80.5
2023-05-24T01:05:03.392Z,80.1
2023-05-24T01:06:02.191Z,80.3
2023-05-24T01:07:01.683Z,79.9
2023-05-24T01:08:03.772Z,80.2
2023-05-24T01:09:03.278Z,81.1
2023-05-24T01:10:03.766Z,82.5
2023-05-24T01:11:01.565Z,81.2
2023-05-24T01:12:03.728Z,81.7
2023-05-24T01:13:03.114Z,81.6
2023-05-24T01:14:01.977Z,80.1
2023-05-24T01:15:01.440Z,80
2023-05-24T01:16:01.987Z,80.1
2023-05-24T01:17:03.024Z,79.9
2023-05-24T01:18:03.484Z,80.8
2023-05-24T01:19:01.281Z,80.4
2023-05-24T01:20:03.427Z,80.4
2023-05-24T01:21:03.918Z,80.6
2023-05-24T01:22:01.697Z,82
2023-05-24T01:23:02.158Z,81.9
2023-05-24T01:24:01.647Z,81.4
2023-05-24T01:25:02.134Z,80.6
2023-05-24T01:26:01.563Z,80.3
2023-05-24T01:27:02.037Z,81.7
2023-05-24T01:28:03.162Z,82.6
2023-05-24T01:29:03.563Z,82.1
2023-05-24T01:30:01.391Z,82.3
2023-05-24T01:31:03.529Z,81.4
2023-05-24T01:32:02.928Z,81.3
2023-05-24T01:33:01.808Z,82
2023-05-24T01:34:03.855Z,82.9
2023-05-24T01:35:01.642Z,83.1
2023-05-24T01:36:03.737Z,83
2023-05-24T01:37:03.178Z,83.4
2023-05-24T01:38:03.596Z,83
2023-05-24T01:39:01.404Z,83.1
2023-05-24T01:40:03.549Z,81.8
2023-05-24T01:41:01.343Z,82.5
2023-05-24T01:42:03.477Z,81
2023-05-24T01:43:02.270Z,80.5
2023-05-24T01:44:01.725Z,80.3
2023-05-24T01:45:02.175Z,80
2023-05-24T01:46:03.276Z,80.6
2023-05-24T01:47:03.822Z,81
2023-05-24T01:48:01.615Z,80
2023-05-24T01:49:02.012Z,79.8
2023-05-24T01:50:03.083Z,81.2
2023-05-24T01:51:01.901Z,80.8
2023-05-24T01:52:01.401Z,79.9
2023-05-24T01:53:03.490Z,79.8
2023-05-24T01:54:02.938Z,79.8
2023-05-24T01:55:01.724Z,79.9
2023-05-24T01:56:03.837Z,79.8
2023-05-24T01:57:03.313Z,80.4
2023-05-24T01:58:02.127Z,80
2023-05-24T01:59:01.627Z,80.2
2023-05-24T02:00:03.704Z,80.1
2023-05-24T02:01:01.575Z,79.9
2023-05-24T02:02:03.751Z,80
2023-05-24T02:03:01.688Z,81.1
2023-05-24T02:04:01.936Z,81.4
2023-05-24T02:05:03.023Z,81.6
2023-05-24T02:06:03.475Z,81.2
2023-05-24T02:08:01.714Z,82.1
2023-05-24T02:09:03.849Z,80.8
2023-05-24T02:10:03.380Z,80.4
2023-05-24T02:11:02.117Z,80.1
2023-05-24T02:12:03.188Z,80.3
2023-05-24T02:13:02.020Z,80.1
2023-05-24T02:14:03.182Z,79.7
2023-05-24T02:15:01.912Z,79.5
2023-05-24T02:16:03.001Z,79.9
2023-05-24T02:17:01.976Z,79.6
2023-05-24T02:18:01.461Z,80.2
2023-05-24T02:19:01.782Z,80.1
2023-05-24T02:20:02.302Z,79.4
2023-05-24T02:21:01.709Z,79.6
2023-05-24T02:22:02.209Z,80.7
2023-05-24T02:23:03.246Z,81.3
2023-05-24T02:24:02.086Z,81.9
2023-05-24T02:25:03.213Z,81.1
2023-05-24T02:26:02.006Z,80.4
2023-05-24T02:27:01.493Z,80.1
2023-05-24T02:28:01.931Z,79.8
2023-05-24T02:29:01.415Z,79.9
2023-05-24T02:30:01.863Z,81.8
2023-05-24T02:31:01.391Z,82
2023-05-24T02:32:03.466Z,82.5
2023-05-24T02:33:03.935Z,81.2
2023-05-24T02:34:03.329Z,81.5
2023-05-24T02:35:02.148Z,80.6
2023-05-24T02:36:01.577Z,79.9
2023-05-24T02:37:02.067Z,79.8
2023-05-24T02:38:03.231Z,81.4
2023-05-24T02:39:02.000Z,82.6
2023-05-24T02:40:03.152Z,82
2023-05-24T02:41:03.548Z,82.4
2023-05-24T02:42:01.328Z,80.8
2023-05-24T02:43:03.475Z,80.1
2023-05-24T02:44:02.262Z,81.1
2023-05-24T02:45:01.733Z,82.3
2023-05-24T02:46:03.983Z,82.3
2023-05-24T02:47:01.659Z,80.3
2023-05-24T02:48:02.152Z,79.6
2023-05-24T02:49:01.628Z,80.3
2023-05-24T02:50:02.046Z,79.7
2023-05-24T02:51:03.184Z,80.3
2023-05-24T02:52:01.987Z,80.2
2023-05-24T02:53:01.431Z,79.7
2023-05-24T02:54:03.562Z,79.7
2023-05-24T02:55:01.365Z,79.8
2023-05-24T02:56:03.461Z,79.9
2023-05-24T02:57:02.920Z,80.4
2023-05-24T02:58:01.758Z,80.3
2023-05-24T02:59:03.842Z,80.1
2023-05-24T03:00:03.321Z,79.6
2023-05-24T03:01:02.154Z,80.8
2023-05-24T03:02:03.348Z,82.3
2023-05-24T03:03:03.780Z,80.6
2023-05-24T03:04:01.488Z,80.2
2023-05-24T03:05:01.929Z,79.9
2023-05-24T03:06:01.408Z,79.9
2023-05-24T03:07:01.903Z,79.7
2023-05-24T03:08:01.376Z,80.4
2023-05-24T03:09:01.815Z,79.8
2023-05-24T03:10:01.320Z,80.3
2023-05-24T03:11:03.406Z,81.2
2023-05-24T03:12:03.881Z,80.4
2023-05-24T03:13:01.674Z,80.9
2023-05-24T03:14:03.751Z,81.6
2023-05-24T03:15:03.180Z,80.6
2023-05-24T03:16:03.679Z,80.5
2023-05-24T03:17:03.090Z,82.1
2023-05-24T03:18:01.915Z,81.7
2023-05-24T03:19:03.000Z,80.9
2023-05-24T03:20:01.869Z,81.4
2023-05-24T03:21:01.297Z,82.3
2023-05-24T03:22:01.746Z,82.6
2023-05-24T03:23:02.830Z,82.3
2023-05-24T03:24:01.644Z,80.7
2023-05-24T03:25:02.171Z,81.6
2023-05-24T03:26:01.612Z,82.2
2023-05-24T03:27:02.108Z,81.1
2023-05-24T03:28:03.186Z,81.9
2023-05-24T03:29:02.021Z,82.6
2023-05-24T03:30:03.140Z,82.8
2023-05-24T03:31:01.942Z,82.7
2023-05-24T03:32:01.525Z,82.6
2023-05-24T03:33:02.017Z,82.7
2023-05-24T03:34:03.010Z,83
2023-05-24T03:35:03.491Z,83.2
2023-05-24T03:36:01.310Z,83.1
2023-05-24T03:37:03.390Z,83.1
2023-05-24T03:38:03.817Z,83.1
2023-05-24T03:39:03.323Z,82.8
2023-05-24T03:40:03.797Z,82.4
2023-05-24T03:41:01.586Z,82.9
2023-05-24T03:42:03.693Z,83.1
2023-05-24T03:43:04.582Z,83.2
2023-05-24T03:44:01.971Z,82.4
2023-05-24T03:45:03.053Z,81.5
2023-05-24T03:46:01.929Z,80.7
2023-05-24T03:47:02.967Z,81.6
2023-05-24T03:48:01.855Z,81.5
2023-05-24T03:49:03.905Z,81
2023-05-24T03:50:01.832Z,81.8
2023-05-24T03:51:03.784Z,82.6
2023-05-24T03:52:01.620Z,81.2
2023-05-24T03:53:03.663Z,81.5
2023-05-24T03:54:01.506Z,82.4
2023-05-24T03:55:01.970Z,82.9
2023-05-24T03:56:01.442Z,83.1
2023-05-24T03:57:01.879Z,83.1
2023-05-24T03:58:03.500Z,82.7
2023-05-24T03:59:02.028Z,82.6
2023-05-24T04:00:03.171Z,82.8
2023-05-24T04:01:01.971Z,82.6
2023-05-24T04:02:01.458Z,82.9
2023-05-24T04:03:03.622Z,80.9
2023-05-24T04:04:01.543Z,82.4
2023-05-24T04:05:03.469Z,82.9
2023-05-24T04:06:02.946Z,83.2
2023-05-24T04:07:01.729Z,82.9
2023-05-24T04:08:03.845Z,82.7
2023-05-24T04:09:01.669Z,82.7
2023-05-24T04:10:02.145Z,82.8
2023-05-24T04:11:03.186Z,82.7
2023-05-24T04:12:02.145Z,83
2023-05-24T04:13:01.521Z,82.6
2023-05-24T04:14:03.763Z,82.8
2023-05-24T04:15:01.453Z,82.3
2023-05-24T04:16:01.939Z,81.5
2023-05-24T04:17:03.099Z,81.9
2023-05-24T04:18:03.600Z,82.4
2023-05-24T04:19:01.372Z,82.3
2023-05-24T04:20:01.860Z,81.9
2023-05-24T04:21:01.289Z,82.4
2023-05-24T04:22:03.381Z,82.3
2023-05-24T04:23:02.221Z,82.1
2023-05-24T04:24:03.350Z,82.4
2023-05-24T04:25:03.788Z,82.2
2023-05-24T04:26:01.586Z,82.3
2023-05-24T04:27:03.692Z,81.7
2023-05-24T04:28:01.489Z,82.2
2023-05-24T04:29:01.972Z,81.4
2023-05-24T04:30:01.452Z,82.4
2023-05-24T04:31:02.004Z,82.4
2023-05-24T04:32:01.373Z,82.6
2023-05-24T04:33:01.933Z,82.7
2023-05-24T04:34:01.374Z,81.8
2023-05-24T04:35:03.459Z,80
2023-05-24T04:36:01.303Z,80.4
2023-05-24T04:37:01.811Z,81.7
2023-05-24T04:38:02.919Z,81.9
2023-05-24T04:39:03.356Z,81.9
2023-05-24T04:40:03.862Z,80.8
2023-05-24T04:41:01.634Z,79.9
2023-05-24T04:42:03.742Z,79.8
2023-05-24T04:43:03.152Z,79.7
2023-05-24T04:44:03.619Z,80.4
2023-05-24T04:45:03.086Z,79.4
2023-05-24T04:46:01.934Z,80.8
2023-05-24T04:47:01.434Z,80.4
2023-05-24T04:48:01.854Z,81.3
2023-05-24T04:49:02.925Z,81.2
2023-05-24T04:50:01.764Z,81.4
2023-05-24T04:51:02.232Z,81.6
2023-05-24T04:52:01.759Z,82.2
2023-05-24T04:53:03.770Z,82.2
2023-05-24T04:54:01.604Z,81.4
2023-05-24T04:55:03.743Z,80.5
2023-05-24T04:56:01.548Z,80.1
2023-05-24T04:57:03.633Z,80.8
2023-05-24T04:58:01.443Z,81.2
2023-05-24T04:59:03.558Z,81.3
2023-05-24T05:00:01.417Z,81.5
2023-05-24T05:01:01.915Z,80.5
2023-05-24T05:02:01.314Z,78.8
2023-05-24T05:03:03.507Z,79.9
2023-05-24T05:04:02.263Z,80.6
2023-05-24T05:05:03.311Z,81.1
2023-05-24T05:06:02.119Z,79.9
2023-05-24T05:07:01.627Z,79.4
2023-05-24T05:08:02.051Z,80.5
2023-05-24T05:09:03.175Z,80.3
2023-05-24T05:10:01.965Z,80.6
2023-05-24T05:11:01.434Z,78.3
2023-05-24T05:12:01.942Z,78.4
2023-05-24T05:13:01.369Z,79.9
2023-05-24T05:14:03.436Z,80.3
2023-05-24T05:15:02.934Z,79.8
2023-05-24T05:16:03.389Z,79.9
2023-05-24T05:17:03.891Z,79
2023-05-24T05:18:01.698Z,78.5
2023-05-24T05:19:03.770Z,77.3
2023-05-24T05:20:01.680Z,78.4
2023-05-24T05:21:02.048Z,78
2023-05-24T05:22:01.512Z,77.2
2023-05-24T05:23:01.968Z,77.5
2023-05-24T05:24:01.454Z,78.6
2023-05-24T05:25:03.506Z,78.9
2023-05-24T05:26:01.352Z,79.2
2023-05-24T05:27:03.441Z,79.3
2023-05-24T05:28:03.891Z,77
2023-05-24T05:29:01.701Z,76.3
2023-05-24T05:30:02.195Z,76.1
2023-05-24T05:31:01.651Z,77.3
2023-05-24T05:32:02.137Z,79
2023-05-24T05:33:03.303Z,80.4
2023-05-24T05:34:02.064Z,80.1
2023-05-24T05:35:03.156Z,79.9
2023-05-24T05:36:03.602Z,79.6
2023-05-24T05:37:03.028Z,78.4
2023-05-24T05:38:01.868Z,77.4
2023-05-24T05:39:01.332Z,78.3
2023-05-24T05:40:01.777Z,79.3
2023-05-24T05:41:03.876Z,79.9
2023-05-24T05:42:01.659Z,78.7
2023-05-24T05:43:02.118Z,77.6
2023-05-24T05:44:03.257Z,77
2023-05-24T05:45:04.264Z,78.2
2023-05-24T05:46:03.550Z,77.8
2023-05-24T05:47:01.358Z,78.8
2023-05-24T05:48:01.825Z,78.5
2023-05-24T05:50:01.749Z,75.9
2023-05-24T05:51:03.821Z,75
2023-05-24T05:52:03.294Z,77.3
2023-05-24T05:53:02.107Z,78.2
2023-05-24T05:54:01.558Z,78.3
2023-05-24T05:55:03.668Z,77.7
2023-05-24T05:56:03.144Z,77.5
2023-05-24T05:57:03.581Z,76.7
2023-05-24T05:58:03.013Z,77.9
2023-05-24T05:59:01.815Z,77.6
2023-05-24T06:00:01.320Z,77.6
2023-05-24T06:01:03.420Z,78.1
2023-05-24T06:02:03.886Z,76.6
2023-05-24T06:03:01.787Z,76.3
2023-05-24T06:04:02.252Z,76.2
2023-05-24T06:05:03.274Z,75.4
2023-05-24T06:06:02.081Z,75.3
2023-05-24T06:07:01.628Z,75.3
2023-05-24T06:08:02.006Z,77.2
2023-05-24T06:09:03.194Z,78.6
2023-05-24T06:10:03.583Z,78.4
2023-05-24T06:11:01.397Z,78.6
2023-05-24T06:12:03.537Z,77.9
2023-05-24T06:13:01.295Z,78.3
2023-05-24T06:14:01.782Z,78.8
2023-05-24T06:15:02.873Z,77.7
2023-05-24T06:16:01.806Z,78.4
2023-05-24T06:17:02.180Z,77.5
2023-05-24T06:18:01.734Z,78
2023-05-24T06:19:06.327Z,77.5
2023-05-24T06:20:02.159Z,77.1
2023-05-24T06:21:02.028Z,75.6
2023-05-24T06:22:03.141Z,75.5
2023-05-24T06:23:01.979Z,76.3
2023-05-24T06:24:03.055Z,77.7
2023-05-24T06:25:01.868Z,76
2023-05-24T06:26:01.374Z,77.4
2023-05-24T06:27:03.292Z,76.3
2023-05-24T06:28:02.930Z,77.7
2023-05-24T06:29:01.782Z,78.2
2023-05-24T06:30:02.264Z,76.7
2023-05-24T06:31:01.776Z,76
2023-05-24T06:32:03.848Z,75.2
2023-05-24T06:33:03.334Z,74.9
2023-05-24T06:34:04.808Z,75.7
2023-05-24T06:35:03.225Z,75.9
2023-05-24T06:36:03.746Z,77.7
2023-05-24T06:37:03.150Z,78.3
2023-05-24T06:38:01.958Z,78.8
2023-05-24T06:39:03.094Z,77.9
2023-05-24T06:40:01.955Z,77.5
2023-05-24T06:41:03.011Z,77.6
2023-05-24T06:42:01.825Z,76.9
2023-05-24T06:43:01.305Z,75.8
2023-05-24T06:44:01.774Z,74
2023-05-24T06:45:02.229Z,74.3
2023-05-24T06:46:01.668Z,73.7
2023-05-24T06:47:03.841Z,74.3
2023-05-24T06:48:03.256Z,74.7
2023-05-24T06:49:02.230Z,73.8
2023-05-24T06:50:03.143Z,75.5
2023-05-24T06:51:03.606Z,76.2
2023-05-24T06:52:01.385Z,76.8
2023-05-24T06:53:03.509Z,74.2
2023-05-24T06:54:01.283Z,76
2023-05-24T06:55:01.788Z,73.3
2023-05-24T06:56:03.844Z,72.8
2023-05-24T06:57:02.277Z,74.2
2023-05-24T06:58:02.104Z,72.3
2023-05-24T06:59:03.279Z,71.8
2023-05-24T07:00:02.040Z,71.2
2023-05-24T07:01:03.223Z,71.3
2023-05-24T07:02:04.200Z,73.4
2023-05-24T07:03:03.164Z,75.4
2023-05-24T07:04:03.506Z,75.3
2023-05-24T07:05:01.352Z,74.8
2023-05-24T07:06:03.396Z,76
2023-05-24T07:07:02.259Z,72.8
2023-05-24T07:08:03.262Z,72.1
2023-05-24T07:09:02.137Z,74.4
2023-05-24T07:10:03.231Z,73.2
2023-05-24T07:11:03.711Z,74.5
2023-05-24T07:12:01.492Z,75.1
2023-05-24T07:13:01.982Z,74.5
2023-05-24T07:14:01.426Z,72.8
2023-05-24T07:15:03.571Z,74.1
2023-05-24T07:16:01.399Z,74.3
2023-05-24T07:17:03.614Z,71.3
2023-05-24T07:18:01.280Z,71.7
2023-05-24T07:19:04.596Z,70.9
2023-05-24T07:20:02.278Z,70.5
2023-05-24T07:21:03.321Z,70.5
2023-05-24T07:22:02.137Z,71.5
2023-05-24T07:23:03.273Z,70.1
2023-05-24T07:24:02.067Z,70.7
2023-05-24T07:25:03.184Z,70.3
2023-05-24T07:26:01.962Z,71.7
2023-05-24T07:27:03.090Z,71.3
2023-05-24T07:28:01.869Z,72.6
2023-05-24T07:29:01.354Z,72.4
2023-05-24T07:30:01.871Z,71.6
2023-05-24T07:31:01.281Z,73.8
2023-05-24T07:32:01.853Z,73.8
2023-05-24T07:33:02.867Z,74.3
2023-05-24T07:34:01.687Z,73.5
2023-05-24T07:35:02.192Z,73
2023-05-24T07:36:03.247Z,72.5
2023-05-24T07:37:03.785Z,72.2
2023-05-24T07:38:03.157Z,72.2
2023-05-24T07:39:03.631Z,71.2
2023-05-24T07:40:01.456Z,71.9
2023-05-24T07:41:03.542Z,71.5
2023-05-24T07:42:03.019Z,71.9
2023-05-24T07:43:04.343Z,72.2
2023-05-24T07:44:02.230Z,70.6
2023-05-24T07:45:03.344Z,71.2
2023-05-24T07:46:03.871Z,71.4
2023-05-24T07:47:01.630Z,72.3
2023-05-24T07:48:02.325Z,70.8
2023-05-24T07:49:03.211Z,72.6
2023-05-24T07:50:03.641Z,72.4
2023-05-24T07:51:03.075Z,70.4
2023-05-24T07:52:01.911Z,71.1
2023-05-24T07:53:02.926Z,68.5
2023-05-24T07:54:01.797Z,69.3
2023-05-24T07:55:02.275Z,72.2
2023-05-24T07:56:03.371Z,71.8
2023-05-24T07:57:03.844Z,70
2023-05-24T07:58:03.282Z,72
2023-05-24T07:59:02.118Z,71
2023-05-24T08:00:01.575Z,70.9
2023-05-24T08:01:02.030Z,71.3
2023-05-24T08:02:01.578Z,70.5
2023-05-24T08:03:03.660Z,70.6
2023-05-24T08:04:01.479Z,69.7
2023-05-24T08:05:03.504Z,71.3
2023-05-24T08:06:01.311Z,71.4
2023-05-24T08:07:01.815Z,71.1
2023-05-24T08:08:02.241Z,71.2
2023-05-24T08:09:02.270Z,69.6
2023-05-24T08:10:02.107Z,70.3
2023-05-24T08:11:01.560Z,71.4
2023-05-24T08:12:03.691Z,71.8
2023-05-24T08:13:03.151Z,69
2023-05-24T08:14:01.948Z,70.2
2023-05-24T08:15:01.414Z,69.7
2023-05-24T08:16:03.539Z,70.9
2023-05-24T08:17:01.357Z,68.1
2023-05-24T08:18:03.551Z,69.9
2023-05-24T08:19:03.883Z,69
2023-05-24T08:20:01.720Z,68.3
2023-05-24T08:21:03.814Z,66.4
2023-05-24T08:22:03.278Z,67.5
2023-05-24T08:23:02.075Z,70.2
2023-05-24T08:24:01.556Z,69.7
2023-05-24T08:25:02.049Z,69.1
2023-05-24T08:26:03.116Z,69.2
2023-05-24T08:27:01.944Z,66
2023-05-24T08:28:03.165Z,67.9
2023-05-24T08:29:03.511Z,70.7
2023-05-24T08:30:01.314Z,68.3
2023-05-24T08:31:01.846Z,66
2023-05-24T08:32:01.326Z,65.1
2023-05-24T08:33:03.395Z,65.9
2023-05-24T08:34:02.194Z,65.8
2023-05-24T08:35:19.385Z,65.1
2023-05-24T08:36:02.133Z,64.2
2023-05-24T08:37:01.591Z,66.3
2023-05-24T08:38:03.694Z,68.1
2023-05-24T08:39:03.187Z,67.6
2023-05-24T08:40:03.624Z,68.3
2023-05-24T08:41:03.016Z,67.7
2023-05-24T08:42:09.280Z,67.9
2023-05-24T08:43:01.284Z,67.3
2023-05-24T08:44:01.749Z,67.5
2023-05-24T08:45:03.907Z,65.9
2023-05-24T08:46:02.350Z,67.9
2023-05-24T08:47:03.789Z,68.4
2023-05-24T08:48:01.682Z,68
2023-05-24T08:49:02.095Z,67.7
2023-05-24T08:50:01.518Z,68.9
2023-05-24T08:51:02.018Z,68.3
2023-05-24T08:52:03.120Z,64.5
2023-05-24T08:53:03.529Z,67.6
2023-05-24T08:54:03.018Z,66.7
2023-05-24T08:55:01.818Z,67.3
2023-05-24T08:56:01.286Z,66.2
2023-05-24T08:57:03.402Z,66.7
2023-05-24T08:58:02.257Z,67.9
2023-05-24T08:59:01.719Z,68.1
2023-05-24T09:00:03.854Z,67.9
2023-05-24T09:01:01.686Z,66.4
2023-05-24T09:02:02.136Z,64.9
2023-05-24T09:03:01.545Z,66.5
2023-05-24T09:04:02.079Z,64.3
2023-05-24T09:05:03.125Z,65.2
2023-05-24T09:06:01.964Z,65.4
2023-05-24T09:07:01.437Z,64.3
2023-05-24T09:08:01.918Z,63.5
2023-05-24T09:09:03.014Z,63.6
2023-05-24T09:10:01.801Z,63.7
2023-05-24T09:11:02.901Z,62.1
2023-05-24T09:12:03.340Z,63.3
2023-05-24T09:13:02.201Z,62.6
2023-05-24T09:14:01.650Z,64.6
2023-05-24T09:15:02.161Z,66.2
2023-05-24T09:16:01.606Z,65.6
2023-05-24T09:17:02.037Z,64.8
2023-05-24T09:18:03.222Z,65.4
2023-05-24T09:19:02.004Z,66.4
2023-05-24T09:20:03.188Z,67.4
2023-05-24T09:21:03.581Z,65.5
2023-05-24T09:22:01.980Z,64.5
2023-05-24T09:23:01.858Z,65
2023-05-24T09:24:01.339Z,63.4
2023-05-24T09:25:03.465Z,64.7
2023-05-24T09:26:01.252Z,66.4
2023-05-24T09:27:03.398Z,66.6
2023-05-24T09:28:02.212Z,63.8
2023-05-24T09:29:03.279Z,62.9
2023-05-24T09:30:03.894Z,64.3
2023-05-24T09:31:06.296Z,62.5
2023-05-24T09:32:02.170Z,62.6
2023-05-24T09:33:03.179Z,64.1
2023-05-24T09:34:03.656Z,64.9
2023-05-24T09:35:03.090Z,64.1
2023-05-24T09:36:01.960Z,64.2
2023-05-24T09:37:02.988Z,64.4
2023-05-24T09:38:01.835Z,63.7
2023-05-24T09:39:02.891Z,63.2
2023-05-24T09:40:03.378Z,62.1
2023-05-24T09:41:02.186Z,62.5
2023-05-24T09:42:03.288Z,62.5
2023-05-24T09:43:02.136Z,63.5
2023-05-24T09:44:01.623Z,62.8
2023-05-24T09:45:02.037Z,62.9
2023-05-24T09:46:03.184Z,61
2023-05-24T09:47:03.667Z,62.7
2023-05-24T09:48:03.171Z,61.3
2023-05-24T09:49:03.495Z,61.6
2023-05-24T09:50:01.370Z,62.2
2023-05-24T09:51:03.454Z,61.1
2023-05-24T09:53:03.388Z,62.8
2023-05-24T09:54:02.206Z,62.6
2023-05-24T09:55:01.633Z,62.6
2023-05-24T09:56:02.133Z,60.7
2023-05-24T09:57:03.439Z,63
2023-05-24T09:58:03.742Z,62.3
2023-05-24T09:59:01.490Z,61.9
2023-05-24T10:00:02.018Z,60.9
2023-05-24T10:01:03.092Z,61.5
2023-05-24T10:02:01.942Z,61.4
2023-05-24T10:03:01.352Z,63.6
2023-05-24T10:04:06.167Z,62.3
2023-05-24T10:05:02.214Z,62.3
2023-05-24T10:06:01.687Z,65.6
2023-05-24T10:07:02.204Z,65.2
2023-05-24T10:08:01.661Z,64.6
2023-05-24T10:09:02.107Z,64.6
2023-05-24T10:10:01.692Z,64.3
2023-05-24T10:11:03.771Z,62.5
2023-05-24T10:12:01.530Z,61.6
2023-05-24T10:13:01.986Z,63.8
2023-05-24T10:14:03.088Z,62.6
2023-05-24T10:15:03.566Z,60.6
2023-05-24T10:16:01.385Z,62.9
2023-05-24T10:17:01.894Z,62.5
2023-05-24T10:18:02.965Z,63.5
2023-05-24T10:19:03.404Z,61.5
2023-05-24T10:20:03.978Z,63.3
2023-05-24T10:21:01.917Z,63.1
2023-05-24T10:22:02.203Z,63.4
2023-05-24T10:23:01.996Z,64.3
2023-05-24T10:24:03.737Z,64.6
2023-05-24T10:25:01.693Z,66.1
2023-05-24T10:26:03.653Z,64.5
2023-05-24T10:27:01.428Z,64.1
2023-05-24T10:28:03.575Z,64
2023-05-24T10:29:01.366Z,65.2
2023-05-24T10:30:05.730Z,64.9
2023-05-24T10:31:01.383Z,64.6
2023-05-24T10:32:03.398Z,63.5
2023-05-24T10:33:02.274Z,63.4
2023-05-24T10:34:07.826Z,64.3
2023-05-24T10:35:03.852Z,62.8
2023-05-24T10:36:01.648Z,62.7
2023-05-24T10:37:03.789Z,63.5
2023-05-24T10:38:01.602Z,64
2023-05-24T10:39:03.717Z,65
2023-05-24T10:40:03.122Z,64.1
2023-05-24T10:41:03.541Z,63.9
2023-05-24T10:42:02.980Z,64.3
2023-05-24T10:43:03.509Z,65.6
2023-05-24T10:45:01.805Z,62.8
2023-05-24T10:46:02.272Z,63.6
2023-05-24T10:47:01.751Z,65.1
2023-05-24T10:48:02.226Z,64.6
2023-05-24T10:49:01.660Z,63.5
2023-05-24T10:50:02.122Z,61.9
2023-05-24T10:51:03.284Z,62.9
2023-05-24T10:52:03.687Z,63.4
2023-05-24T10:53:03.123Z,64.1
2023-05-24T10:54:01.945Z,64
2023-05-24T10:55:04.663Z,63.9
2023-05-24T10:56:03.485Z,61.7
2023-05-24T10:57:02.930Z,63.2
2023-05-24T10:58:03.385Z,64.4
2023-05-24T10:59:03.885Z,62
2023-05-24T11:00:01.674Z,62
2023-05-24T11:01:02.139Z,61.1
2023-05-24T11:02:01.581Z,60.4
2023-05-24T11:03:02.128Z,61
2023-05-24T11:04:01.474Z,62
2023-05-24T11:05:03.624Z,62.1
2023-05-24T11:06:03.217Z,60.7
2023-05-24T11:07:03.712Z,61.9
2023-05-24T11:08:02.927Z,62.5
2023-05-24T11:09:03.390Z,61.6
2023-05-24T11:10:03.820Z,61.5
2023-05-24T11:11:14.926Z,60.7
2023-05-24T11:12:01.464Z,60.8
2023-05-24T11:13:03.601Z,60.5
2023-05-24T11:14:01.435Z,60.2
2023-05-24T11:15:03.516Z,60.7
2023-05-24T11:16:03.006Z,61.3
2023-05-24T11:17:03.422Z,61.8
2023-05-24T11:18:02.340Z,62.3
2023-05-24T11:19:01.668Z,62.2
2023-05-24T11:20:02.243Z,63.4
2023-05-24T11:21:03.295Z,59.8
2023-05-24T11:22:03.748Z,61.5
2023-05-24T11:23:01.489Z,62
2023-05-24T11:24:01.953Z,61.6
2023-05-24T11:25:01.408Z,62.6
2023-05-24T11:26:01.888Z,62
2023-05-24T11:27:01.339Z,60.9
2023-05-24T11:28:01.816Z,60.6
2023-05-24T11:29:04.152Z,60.5
2023-05-24T11:30:01.782Z,60.3
2023-05-24T11:31:03.798Z,60.5
2023-05-24T11:32:01.702Z,60.7
2023-05-24T11:33:02.180Z,59.7
2023-05-24T11:34:01.626Z,59.4
2023-05-24T11:35:02.132Z,60.5
2023-05-24T11:36:01.574Z,59.9
2023-05-24T11:37:02.133Z,60
2023-05-24T11:38:03.146Z,60.1
2023-05-24T11:39:03.603Z,60.4
2023-05-24T11:40:01.440Z,60.7
2023-05-24T11:41:03.545Z,59.6
2023-05-24T11:42:01.374Z,59.9
2023-05-24T11:43:01.807Z,60.9
2023-05-24T11:44:02.265Z,58.6
2023-05-24T11:45:03.384Z,60.4
2023-05-24T11:46:02.266Z,59.3
2023-05-24T11:47:03.949Z,60.2
2023-05-24T11:48:03.179Z,59.6
2023-05-24T11:49:03.657Z,60.8
2023-05-24T11:50:01.450Z,59.1
2023-05-24T11:51:03.572Z,59.7
2023-05-24T11:52:03.027Z,60.2
2023-05-24T11:53:03.456Z,62.1
2023-05-24T11:55:03.410Z,60.3
2023-05-24T11:56:03.847Z,61.1
2023-05-24T11:57:03.393Z,61.2
2023-05-24T11:58:02.096Z,62.2
2023-05-24T11:59:03.237Z,60.8
2023-05-24T12:00:03.681Z,62.3
2023-05-24T12:01:03.140Z,61.7
2023-05-24T12:02:03.772Z,60.4
2023-05-24T12:03:01.513Z,60.9
2023-05-24T12:04:01.951Z,61.2
2023-05-24T12:05:01.388Z,62.3
2023-05-24T12:06:03.401Z,61.2
2023-05-24T12:07:03.888Z,61.3
2023-05-24T12:08:01.688Z,61.1
2023-05-24T12:09:03.736Z,61.2
2023-05-24T12:10:01.553Z,59.7
2023-05-24T12:11:03.643Z,60
2023-05-24T12:12:01.477Z,59.6
2023-05-24T12:13:01.964Z,61.2
2023-05-24T12:14:01.396Z,61.8
2023-05-24T12:15:01.856Z,59.3
2023-05-24T12:16:02.995Z,60.2
2023-05-24T12:17:01.777Z,60.4
2023-05-24T12:18:03.890Z,59.1
2023-05-24T12:19:07.082Z,59.4
2023-05-24T12:20:02.268Z,59.8
2023-05-24T12:21:01.614Z,59.1
2023-05-24T12:22:02.154Z,60.4
2023-05-24T12:23:01.550Z,62.1
2023-05-24T12:24:03.655Z,59.1
2023-05-24T12:25:02.133Z,58.9
2023-05-24T12:26:01.962Z,59.8
2023-05-24T12:27:01.430Z,59.1
2023-05-24T12:28:03.496Z,59.7
2023-05-24T12:29:02.988Z,60.3
2023-05-24T12:30:03.395Z,59.7
2023-05-24T12:31:03.962Z,59.7
2023-05-24T12:32:03.291Z,60.5
2023-05-24T12:33:02.151Z,59.7
2023-05-24T12:34:01.569Z,59.9
2023-05-24T12:35:03.690Z,60.4
2023-05-24T12:36:03.112Z,61.2
2023-05-24T12:37:01.960Z,60.6
2023-05-24T12:38:01.390Z,60
2023-05-24T12:39:03.531Z,58.9
2023-05-24T12:40:02.921Z,60.1
2023-05-24T12:42:03.874Z,59.6
2023-05-24T12:43:03.385Z,59.5
2023-05-24T12:44:03.755Z,60.5
2023-05-24T12:45:03.235Z,59.8
2023-05-24T12:46:03.677Z,58.9
2023-05-24T12:47:01.546Z,59.4
2023-05-24T12:48:03.605Z,60.3
2023-05-24T12:49:01.424Z,60.8
2023-05-24T12:50:01.883Z,59.6
2023-05-24T12:51:02.981Z,60.5
2023-05-24T12:52:03.398Z,59.9
2023-05-24T12:53:02.228Z,60.4
2023-05-24T12:54:03.326Z,59.4
2023-05-24T12:55:02.156Z,60.4
2023-05-24T12:56:01.582Z,58.6
2023-05-24T12:57:02.067Z,58.9
2023-05-24T12:58:03.183Z,59
2023-05-24T12:59:03.652Z,60.2
2023-05-24T13:00:01.386Z,60.5
2023-05-24T13:01:03.604Z,60.6
2023-05-24T13:02:01.364Z,59.5
2023-05-24T13:03:03.534Z,59.7
2023-05-24T13:04:02.284Z,60.4
2023-05-24T13:05:01.796Z,60.7
2023-05-24T13:06:03.854Z,59
2023-05-24T13:07:03.376Z,57.8
2023-05-24T13:08:03.755Z,58.1
2023-05-24T13:09:01.598Z,58.1
2023-05-24T13:10:03.674Z,58.2
2023-05-24T13:11:03.107Z,57.6
2023-05-24T13:12:01.946Z,58.1
2023-05-24T13:13:01.443Z,57.4
2023-05-24T13:14:01.887Z,59
2023-05-24T13:15:01.373Z,57.2
2023-05-24T13:16:01.815Z,58.2
2023-05-24T13:17:01.333Z,58.8
2023-05-24T13:18:01.797Z,58.4
2023-05-24T13:19:03.878Z,59.2
2023-05-24T13:20:01.802Z,59.4
2023-05-24T13:21:03.874Z,59.8
2023-05-24T13:22:03.245Z,60.4
2023-05-24T13:23:03.755Z,59.7
2023-05-24T13:24:03.176Z,60
2023-05-24T13:25:03.697Z,59.8
2023-05-24T13:26:01.488Z,60
2023-05-24T13:27:03.633Z,59.8
2023-05-24T13:28:03.010Z,59.7
2023-05-24T13:29:22.413Z,60.7